Terminal Aerodrome Forecast
Issued by NWS

Home | Current Version | Previous Version | Text Only | Print | Product List | Glossary On
Versions: 1 2 3 4 5 6 7 8 9 10 11 12 13 14 15 16 17 18 19 20 21 22 23 24 25 26 27 28 29 30 31 32
000
FTUS42 KRAH 311943 AAA
TAFINT
TAF AMD
KINT 311943Z 3120/0118 VRB05KT P6SM SCT030 BKN050
     FM312200 VRB05KT P6SM SCT250
     FM010700 VRB04KT 5SM BR SCT008
      TEMPO 0108/0112 2SM BR
     FM011400 VRB04KT P6SM SCT030=

USA.gov is the U.S. government's official web portal to all federal, state and local government web resources and services.